Главная страница
METAR-TAF:

METAR-TAF

Аэропорты :

Westminster, Мэриленд, США

широта: 39-36-30N, долгота: 077-00-28W, высота над уровнем моря: 240 м

Текущие метеонаблюдения

Эта сводка был подготовлена 25 минут назад, в 22:55 UTC
Ветер 3 Узел от северо-западный
Температура 11°C
Влажность 87%
Давление 1012 hPa
Видимость: 16.1 км
Отдельные облака на высоте 2800 фута
Рассеянная облачность на высоте 3900 фута
Сплошная облачность на высоте 4700 фута
Морось

METAR: KDMW 072255Z AUTO 31003KT 10SM DZ SCT028 BKN039 OVC047 11/09 A2987 RMK AO2

Время: 19:20 (23:20 UTC)


TAF: отсутствует

Метеонаблюдения и прогнозы для более 4000 аэропортов (сводки METAR и TAF).

Имеющиеся станции представлены на карте желтыми и красными точками.

Чтобы увидеть название станции, наведите на нее мышь.

Затем щелкните, чтобы увидеть метеонаблюдения и метеопрогнозы.

Управление картой: чтобы увеличить масштаб, щелкните зеленые кнопки с черным крестиком; чтобы уменьшить масштаб, щелкните зеленую кнопку с тире; для просмотра соседних карт щелкайте зеленые стрелки.


METAR-TAF: